首页
METAR-TAF:

METAR-TAF

机场 :

舊金山國際機場

旧金山, 加利福尼亚州, 美国

纬度: 37-37-11N, 经度: 122-21-53W, 海拔: 3米

当前天气观测

该预报发布于45分钟前的05:56 UTC
风速10节,风向西,有时为21节阵风
温度 14°C
湿度 72%
气压 1017 hPa
能見度: 16.1公里
少量云层高于700英尺
多云层高于1100英尺

METAR: KSFO 210556Z 26010G21KT 10SM FEW007 BKN011 14/09 A3002 RMK AO2 SLP166 T01390094 10172 20139 53003 $

时间: 23:41 (06:41 UTC)

预报

该预报发布于1小时和18分钟前的05:23 UTC
预报有效从21日的 06点(UTC)到 22日的 12点(UTC)
风速14节,风向西,有时为20节阵风
能見度: 10公里
多云层高于1200英尺
从 21日的 1100点(UTC)
风速8节,风向西
能見度: 10公里
多云层高于700英尺
从 21日的 1800点(UTC)
风速8节,风向西
能見度: 10公里
散云层高于1600英尺
从 21日的 2000点(UTC)
风速16节,风向西转西北
能見度: 10公里
少量云层高于25000英尺
从 22日的 0400点(UTC)
风速10节,风向西转西北
能見度: 10公里
少量云层高于25000英尺

TAF: KSFO 210523Z 2106/2212 28014G20KT P6SM BKN012 FM211100 28008KT P6SM BKN007 FM211800 28008KT P6SM SCT016 FM212000 29016KT P6SM FEW250 FM220400 29010KT P6SM FEW250

超过4000个机场的气象观测和天气预报(METAR&TAF报告)。

可查询的气象台以黄色和红色小点在地图上表示。

将鼠标移到小点上方,可查看气象台名称。

然后点击查看天气观测和预报。

如需切换地图:点击带黑十字的绿色按钮放大地图;点击带横线的绿色按钮缩小地图;或者点击绿色箭头查看邻近地区的地图。


METAR-TAF: